sensor_id;sensor_type;location;lat;lon;timestamp;P1;durP1;ratioP1;P2;durP2;ratioP2
43088;SDS011;28709;52.030;5.652;2022-12-29T00:02:03;2.15;;;1.92;;
43088;SDS011;28709;52.030;5.652;2022-12-29T00:04:29;4.60;;;1.83;;
43088;SDS011;28709;52.030;5.652;2022-12-29T00:06:55;2.42;;;1.50;;
43088;SDS011;28709;52.030;5.652;2022-12-29T00:09:21;2.08;;;1.50;;
43088;SDS011;28709;52.030;5.652;2022-12-29T00:11:47;1.80;;;1.48;;
43088;SDS011;28709;52.030;5.652;2022-12-29T00:14:12;2.03;;;1.50;;
43088;SDS011;28709;52.030;5.652;2022-12-29T00:16:57;2.63;;;1.58;;
43088;SDS011;28709;52.030;5.652;2022-12-29T00:19:23;2.72;;;1.50;;
43088;SDS011;28709;52.030;5.652;2022-12-29T00:22:08;4.40;;;1.55;;
43088;SDS011;28709;52.030;5.652;2022-12-29T00:24:54;4.82;;;1.63;;
43088;SDS011;28709;52.030;5.652;2022-12-29T00:27:27;2.85;;;1.90;;
43088;SDS011;28709;52.030;5.652;2022-12-29T00:30:12;1.73;;;1.35;;
43088;SDS011;28709;52.030;5.652;2022-12-29T00:32:59;2.20;;;1.10;;
43088;SDS011;28709;52.030;5.652;2022-12-29T00:35:57;4.30;;;2.10;;
43088;SDS011;28709;52.030;5.652;2022-12-29T00:38:29;1.42;;;1.33;;
43088;SDS011;28709;52.030;5.652;2022-12-29T00:41:17;2.45;;;1.45;;
43088;SDS011;28709;52.030;5.652;2022-12-29T00:44:01;1.90;;;1.35;;
43088;SDS011;28709;52.030;5.652;2022-12-29T00:46:30;2.30;;;1.38;;
43088;SDS011;28709;52.030;5.652;2022-12-29T00:49:00;1.70;;;1.33;;
43088;SDS011;28709;52.030;5.652;2022-12-29T00:51:45;2.40;;;1.38;;
43088;SDS011;28709;52.030;5.652;2022-12-29T00:54:11;2.70;;;1.27;;
43088;SDS011;28709;52.030;5.652;2022-12-29T00:56:37;2.35;;;1.45;;
43088;SDS011;28709;52.030;5.652;2022-12-29T00:59:04;3.97;;;1.30;;
43088;SDS011;28709;52.030;5.652;2022-12-29T01:01:31;2.33;;;0.85;;
43088;SDS011;28709;52.030;5.652;2022-12-29T01:03:58;2.70;;;1.23;;
43088;SDS011;28709;52.030;5.652;2022-12-29T01:06:24;4.05;;;1.33;;
43088;SDS011;28709;52.030;5.652;2022-12-29T01:08:50;1.05;;;1.00;;
43088;SDS011;28709;52.030;5.652;2022-12-29T01:11:36;2.85;;;1.23;;
43088;SDS011;28709;52.030;5.652;2022-12-29T01:14:03;3.05;;;1.00;;
43088;SDS011;28709;52.030;5.652;2022-12-29T01:16:28;1.95;;;1.13;;
43088;SDS011;28709;52.030;5.652;2022-12-29T01:18:54;1.50;;;0.80;;
43088;SDS011;28709;52.030;5.652;2022-12-29T01:21:20;2.53;;;0.95;;
43088;SDS011;28709;52.030;5.652;2022-12-29T01:23:46;2.58;;;1.08;;
43088;SDS011;28709;52.030;5.652;2022-12-29T01:26:12;0.98;;;0.88;;
43088;SDS011;28709;52.030;5.652;2022-12-29T01:28:39;2.40;;;0.80;;
43088;SDS011;28709;52.030;5.652;2022-12-29T01:31:06;1.08;;;0.55;;
43088;SDS011;28709;52.030;5.652;2022-12-29T01:33:33;1.02;;;0.90;;
43088;SDS011;28709;52.030;5.652;2022-12-29T01:36:05;1.95;;;0.73;;
43088;SDS011;28709;52.030;5.652;2022-12-29T01:38:34;2.30;;;0.82;;
43088;SDS011;28709;52.030;5.652;2022-12-29T01:41:01;0.95;;;0.80;;
43088;SDS011;28709;52.030;5.652;2022-12-29T01:43:41;3.00;;;1.02;;
43088;SDS011;28709;52.030;5.652;2022-12-29T01:48:49;4.22;;;1.00;;
43088;SDS011;28709;52.030;5.652;2022-12-29T01:51:21;4.47;;;1.20;;
43088;SDS011;28709;52.030;5.652;2022-12-29T01:53:49;1.55;;;0.90;;
43088;SDS011;28709;52.030;5.652;2022-12-29T01:56:16;2.55;;;0.80;;
43088;SDS011;28709;52.030;5.652;2022-12-29T01:58:44;1.33;;;0.85;;
43088;SDS011;28709;52.030;5.652;2022-12-29T02:01:12;2.03;;;0.90;;
43088;SDS011;28709;52.030;5.652;2022-12-29T02:03:39;2.50;;;1.33;;
43088;SDS011;28709;52.030;5.652;2022-12-29T02:06:10;1.60;;;0.95;;
43088;SDS011;28709;52.030;5.652;2022-12-29T02:08:43;1.08;;;0.73;;
43088;SDS011;28709;52.030;5.652;2022-12-29T02:11:11;3.05;;;0.98;;
43088;SDS011;28709;52.030;5.652;2022-12-29T02:13:38;3.90;;;0.95;;
43088;SDS011;28709;52.030;5.652;2022-12-29T02:27:40;3.00;;;1.33;;
43088;SDS011;28709;52.030;5.652;2022-12-29T02:30:12;1.92;;;0.77;;
43088;SDS011;28709;52.030;5.652;2022-12-29T02:35:28;2.85;;;1.08;;
43088;SDS011;28709;52.030;5.652;2022-12-29T02:41:19;2.25;;;0.60;;
43088;SDS011;28709;52.030;5.652;2022-12-29T02:47:06;1.75;;;0.47;;
43088;SDS011;28709;52.030;5.652;2022-12-29T02:49:45;0.30;;;0.20;;
43088;SDS011;28709;52.030;5.652;2022-12-29T02:52:34;4.20;;;0.68;;
43088;SDS011;28709;52.030;5.652;2022-12-29T02:55:04;3.08;;;0.98;;
43088;SDS011;28709;52.030;5.652;2022-12-29T02:57:34;2.22;;;0.50;;
43088;SDS011;28709;52.030;5.652;2022-12-29T03:00:05;1.40;;;0.60;;
43088;SDS011;28709;52.030;5.652;2022-12-29T03:05:07;2.70;;;0.60;;
43088;SDS011;28709;52.030;5.652;2022-12-29T03:13:36;1.83;;;0.63;;
43088;SDS011;28709;52.030;5.652;2022-12-29T03:21:41;2.90;;;0.90;;
43088;SDS011;28709;52.030;5.652;2022-12-29T03:24:32;5.00;;;0.75;;
43088;SDS011;28709;52.030;5.652;2022-12-29T03:27:01;3.45;;;0.52;;
43088;SDS011;28709;52.030;5.652;2022-12-29T03:29:29;1.67;;;0.60;;
43088;SDS011;28709;52.030;5.652;2022-12-29T03:31:59;2.38;;;0.55;;
43088;SDS011;28709;52.030;5.652;2022-12-29T03:34:26;3.22;;;0.45;;
43088;SDS011;28709;52.030;5.652;2022-12-29T03:36:54;3.00;;;0.63;;
43088;SDS011;28709;52.030;5.652;2022-12-29T03:39:27;3.33;;;0.57;;
43088;SDS011;28709;52.030;5.652;2022-12-29T03:42:00;2.35;;;0.40;;
43088;SDS011;28709;52.030;5.652;2022-12-29T03:44:39;3.13;;;0.57;;
43088;SDS011;28709;52.030;5.652;2022-12-29T03:47:07;7.53;;;1.10;;
43088;SDS011;28709;52.030;5.652;2022-12-29T03:49:34;2.22;;;0.70;;
43088;SDS011;28709;52.030;5.652;2022-12-29T03:52:00;1.10;;;0.63;;
43088;SDS011;28709;52.030;5.652;2022-12-29T03:54:26;3.70;;;0.70;;
43088;SDS011;28709;52.030;5.652;2022-12-29T03:56:51;3.03;;;0.80;;
43088;SDS011;28709;52.030;5.652;2022-12-29T03:59:17;1.88;;;0.70;;
43088;SDS011;28709;52.030;5.652;2022-12-29T04:01:43;2.97;;;0.75;;
43088;SDS011;28709;52.030;5.652;2022-12-29T04:04:08;2.33;;;0.90;;
43088;SDS011;28709;52.030;5.652;2022-12-29T04:06:34;3.83;;;0.85;;
43088;SDS011;28709;52.030;5.652;2022-12-29T04:09:00;2.72;;;1.00;;
43088;SDS011;28709;52.030;5.652;2022-12-29T04:11:26;7.70;;;1.77;;
43088;SDS011;28709;52.030;5.652;2022-12-29T04:13:51;3.13;;;0.55;;
43088;SDS011;28709;52.030;5.652;2022-12-29T04:16:17;3.65;;;0.75;;
43088;SDS011;28709;52.030;5.652;2022-12-29T04:18:43;2.50;;;0.60;;
43088;SDS011;28709;52.030;5.652;2022-12-29T04:21:08;4.47;;;1.27;;
43088;SDS011;28709;52.030;5.652;2022-12-29T04:23:35;1.85;;;0.88;;
43088;SDS011;28709;52.030;5.652;2022-12-29T04:26:02;2.80;;;0.60;;
43088;SDS011;28709;52.030;5.652;2022-12-29T04:28:28;2.38;;;0.45;;
43088;SDS011;28709;52.030;5.652;2022-12-29T04:30:55;5.32;;;0.90;;
43088;SDS011;28709;52.030;5.652;2022-12-29T04:33:21;4.05;;;1.00;;
43088;SDS011;28709;52.030;5.652;2022-12-29T04:35:47;4.53;;;1.10;;
43088;SDS011;28709;52.030;5.652;2022-12-29T04:38:13;3.70;;;1.05;;
43088;SDS011;28709;52.030;5.652;2022-12-29T04:40:40;1.00;;;0.55;;
43088;SDS011;28709;52.030;5.652;2022-12-29T04:43:07;5.82;;;0.75;;
43088;SDS011;28709;52.030;5.652;2022-12-29T04:45:34;5.47;;;0.80;;
43088;SDS011;28709;52.030;5.652;2022-12-29T04:47:59;7.40;;;1.38;;
43088;SDS011;28709;52.030;5.652;2022-12-29T04:50:25;3.60;;;0.77;;
43088;SDS011;28709;52.030;5.652;2022-12-29T04:52:50;3.92;;;1.10;;
43088;SDS011;28709;52.030;5.652;2022-12-29T04:55:16;8.48;;;0.93;;
43088;SDS011;28709;52.030;5.652;2022-12-29T04:57:42;6.88;;;1.15;;
43088;SDS011;28709;52.030;5.652;2022-12-29T05:00:08;5.78;;;1.02;;
43088;SDS011;28709;52.030;5.652;2022-12-29T05:02:35;2.88;;;0.70;;
43088;SDS011;28709;52.030;5.652;2022-12-29T05:05:01;4.05;;;0.82;;
43088;SDS011;28709;52.030;5.652;2022-12-29T05:07:27;4.13;;;0.90;;
43088;SDS011;28709;52.030;5.652;2022-12-29T05:09:52;4.55;;;0.82;;
43088;SDS011;28709;52.030;5.652;2022-12-29T05:12:18;3.85;;;1.00;;
43088;SDS011;28709;52.030;5.652;2022-12-29T05:14:44;7.75;;;1.50;;
43088;SDS011;28709;52.030;5.652;2022-12-29T05:17:09;5.28;;;1.30;;
43088;SDS011;28709;52.030;5.652;2022-12-29T05:19:35;6.13;;;1.33;;
43088;SDS011;28709;52.030;5.652;2022-12-29T05:22:00;5.30;;;1.10;;
43088;SDS011;28709;52.030;5.652;2022-12-29T05:24:26;6.63;;;1.20;;
43088;SDS011;28709;52.030;5.652;2022-12-29T05:26:52;4.90;;;1.10;;
43088;SDS011;28709;52.030;5.652;2022-12-29T05:29:17;9.18;;;1.40;;
43088;SDS011;28709;52.030;5.652;2022-12-29T05:31:43;3.72;;;0.85;;
43088;SDS011;28709;52.030;5.652;2022-12-29T05:34:10;5.13;;;1.20;;
43088;SDS011;28709;52.030;5.652;2022-12-29T05:36:36;7.10;;;0.90;;
43088;SDS011;28709;52.030;5.652;2022-12-29T05:39:02;5.93;;;0.93;;
43088;SDS011;28709;52.030;5.652;2022-12-29T05:41:28;5.10;;;0.90;;
43088;SDS011;28709;52.030;5.652;2022-12-29T05:43:53;7.95;;;1.23;;
43088;SDS011;28709;52.030;5.652;2022-12-29T05:46:19;3.83;;;0.88;;
43088;SDS011;28709;52.030;5.652;2022-12-29T05:48:45;4.32;;;0.98;;
43088;SDS011;28709;52.030;5.652;2022-12-29T05:51:11;5.07;;;0.65;;
43088;SDS011;28709;52.030;5.652;2022-12-29T05:53:36;4.80;;;0.93;;
43088;SDS011;28709;52.030;5.652;2022-12-29T05:56:02;1.25;;;0.50;;
43088;SDS011;28709;52.030;5.652;2022-12-29T05:58:28;7.97;;;1.08;;
43088;SDS011;28709;52.030;5.652;2022-12-29T06:00:53;7.40;;;1.38;;
43088;SDS011;28709;52.030;5.652;2022-12-29T06:03:19;6.03;;;0.98;;
43088;SDS011;28709;52.030;5.652;2022-12-29T06:05:45;6.68;;;1.77;;
43088;SDS011;28709;52.030;5.652;2022-12-29T06:08:11;9.23;;;1.20;;
43088;SDS011;28709;52.030;5.652;2022-12-29T06:10:37;8.52;;;1.35;;
43088;SDS011;28709;52.030;5.652;2022-12-29T06:13:02;8.60;;;1.42;;
43088;SDS011;28709;52.030;5.652;2022-12-29T06:15:30;3.88;;;1.02;;
43088;SDS011;28709;52.030;5.652;2022-12-29T06:17:59;6.28;;;1.35;;
43088;SDS011;28709;52.030;5.652;2022-12-29T06:20:25;7.25;;;1.00;;
43088;SDS011;28709;52.030;5.652;2022-12-29T06:22:51;5.78;;;1.10;;
43088;SDS011;28709;52.030;5.652;2022-12-29T06:25:16;6.53;;;0.93;;
43088;SDS011;28709;52.030;5.652;2022-12-29T06:27:42;10.02;;;1.48;;
43088;SDS011;28709;52.030;5.652;2022-12-29T06:30:08;7.43;;;1.13;;
43088;SDS011;28709;52.030;5.652;2022-12-29T06:32:35;5.53;;;1.05;;
43088;SDS011;28709;52.030;5.652;2022-12-29T06:35:01;13.10;;;1.90;;
43088;SDS011;28709;52.030;5.652;2022-12-29T06:37:28;6.95;;;1.73;;
43088;SDS011;28709;52.030;5.652;2022-12-29T06:39:54;6.68;;;1.00;;
43088;SDS011;28709;52.030;5.652;2022-12-29T06:42:20;9.50;;;1.33;;
43088;SDS011;28709;52.030;5.652;2022-12-29T06:44:46;9.35;;;1.33;;
43088;SDS011;28709;52.030;5.652;2022-12-29T06:47:11;7.85;;;1.08;;
43088;SDS011;28709;52.030;5.652;2022-12-29T06:49:37;8.50;;;1.30;;
43088;SDS011;28709;52.030;5.652;2022-12-29T06:52:04;6.95;;;1.02;;
43088;SDS011;28709;52.030;5.652;2022-12-29T06:54:30;11.65;;;1.75;;
43088;SDS011;28709;52.030;5.652;2022-12-29T06:56:56;8.32;;;1.10;;
43088;SDS011;28709;52.030;5.652;2022-12-29T06:59:22;10.60;;;1.45;;
43088;SDS011;28709;52.030;5.652;2022-12-29T07:01:47;6.60;;;1.17;;
43088;SDS011;28709;52.030;5.652;2022-12-29T07:04:13;9.65;;;1.88;;
43088;SDS011;28709;52.030;5.652;2022-12-29T07:06:39;7.43;;;1.10;;
43088;SDS011;28709;52.030;5.652;2022-12-29T07:09:05;6.25;;;1.10;;
43088;SDS011;28709;52.030;5.652;2022-12-29T07:11:32;7.38;;;1.70;;
43088;SDS011;28709;52.030;5.652;2022-12-29T07:13:58;5.07;;;0.98;;
43088;SDS011;28709;52.030;5.652;2022-12-29T07:16:24;10.55;;;1.23;;
43088;SDS011;28709;52.030;5.652;2022-12-29T07:18:49;4.75;;;1.15;;
43088;SDS011;28709;52.030;5.652;2022-12-29T07:21:16;7.45;;;1.45;;
43088;SDS011;28709;52.030;5.652;2022-12-29T07:23:42;7.97;;;0.98;;
43088;SDS011;28709;52.030;5.652;2022-12-29T07:26:08;5.20;;;1.20;;
43088;SDS011;28709;52.030;5.652;2022-12-29T07:28:37;5.25;;;1.20;;
43088;SDS011;28709;52.030;5.652;2022-12-29T07:31:09;8.18;;;1.50;;
43088;SDS011;28709;52.030;5.652;2022-12-29T07:33:40;5.20;;;1.10;;
43088;SDS011;28709;52.030;5.652;2022-12-29T07:36:06;15.43;;;2.20;;
43088;SDS011;28709;52.030;5.652;2022-12-29T07:38:32;12.55;;;1.90;;
43088;SDS011;28709;52.030;5.652;2022-12-29T07:40:58;8.30;;;1.05;;
43088;SDS011;28709;52.030;5.652;2022-12-29T07:43:24;8.75;;;1.73;;
43088;SDS011;28709;52.030;5.652;2022-12-29T07:45:50;8.95;;;1.85;;
43088;SDS011;28709;52.030;5.652;2022-12-29T07:48:15;7.53;;;0.90;;
43088;SDS011;28709;52.030;5.652;2022-12-29T07:50:41;16.27;;;2.22;;
43088;SDS011;28709;52.030;5.652;2022-12-29T07:53:06;5.82;;;1.20;;
43088;SDS011;28709;52.030;5.652;2022-12-29T07:55:32;6.88;;;1.45;;
43088;SDS011;28709;52.030;5.652;2022-12-29T07:57:58;9.80;;;1.88;;
43088;SDS011;28709;52.030;5.652;2022-12-29T08:00:24;13.57;;;1.38;;
43088;SDS011;28709;52.030;5.652;2022-12-29T08:02:49;6.90;;;1.65;;
43088;SDS011;28709;52.030;5.652;2022-12-29T08:05:15;9.23;;;1.58;;
43088;SDS011;28709;52.030;5.652;2022-12-29T08:07:44;12.50;;;1.88;;
43088;SDS011;28709;52.030;5.652;2022-12-29T08:10:11;9.20;;;1.88;;
43088;SDS011;28709;52.030;5.652;2022-12-29T08:12:40;8.90;;;1.50;;
43088;SDS011;28709;52.030;5.652;2022-12-29T08:15:07;6.95;;;1.25;;
43088;SDS011;28709;52.030;5.652;2022-12-29T08:17:33;5.28;;;1.38;;
43088;SDS011;28709;52.030;5.652;2022-12-29T08:19:59;6.43;;;1.48;;
43088;SDS011;28709;52.030;5.652;2022-12-29T08:22:25;7.80;;;1.15;;
43088;SDS011;28709;52.030;5.652;2022-12-29T08:24:51;8.13;;;1.60;;
43088;SDS011;28709;52.030;5.652;2022-12-29T08:27:17;9.45;;;1.98;;
43088;SDS011;28709;52.030;5.652;2022-12-29T08:29:43;15.63;;;2.17;;
43088;SDS011;28709;52.030;5.652;2022-12-29T08:32:09;10.43;;;2.05;;
43088;SDS011;28709;52.030;5.652;2022-12-29T08:34:35;10.38;;;1.38;;
43088;SDS011;28709;52.030;5.652;2022-12-29T08:37:01;15.38;;;2.10;;
43088;SDS011;28709;52.030;5.652;2022-12-29T08:39:26;7.60;;;1.80;;
43088;SDS011;28709;52.030;5.652;2022-12-29T08:41:52;7.13;;;1.08;;
43088;SDS011;28709;52.030;5.652;2022-12-29T08:44:18;10.95;;;2.15;;
43088;SDS011;28709;52.030;5.652;2022-12-29T08:46:43;9.23;;;1.63;;
43088;SDS011;28709;52.030;5.652;2022-12-29T08:49:09;9.13;;;1.55;;
43088;SDS011;28709;52.030;5.652;2022-12-29T08:51:35;17.58;;;1.63;;
43088;SDS011;28709;52.030;5.652;2022-12-29T08:54:00;5.20;;;1.00;;
43088;SDS011;28709;52.030;5.652;2022-12-29T08:56:26;16.15;;;2.13;;
43088;SDS011;28709;52.030;5.652;2022-12-29T08:58:53;9.15;;;1.48;;
43088;SDS011;28709;52.030;5.652;2022-12-29T09:01:19;7.05;;;1.05;;
43088;SDS011;28709;52.030;5.652;2022-12-29T09:03:45;6.63;;;1.42;;
43088;SDS011;28709;52.030;5.652;2022-12-29T09:06:11;9.50;;;1.55;;
43088;SDS011;28709;52.030;5.652;2022-12-29T09:08:37;11.80;;;1.63;;
43088;SDS011;28709;52.030;5.652;2022-12-29T09:11:06;8.70;;;1.13;;
43088;SDS011;28709;52.030;5.652;2022-12-29T09:13:33;9.70;;;2.03;;
43088;SDS011;28709;52.030;5.652;2022-12-29T09:15:59;11.57;;;1.90;;
43088;SDS011;28709;52.030;5.652;2022-12-29T09:18:25;10.80;;;1.75;;
43088;SDS011;28709;52.030;5.652;2022-12-29T09:20:55;12.30;;;1.60;;
43088;SDS011;28709;52.030;5.652;2022-12-29T09:23:25;12.40;;;2.20;;
43088;SDS011;28709;52.030;5.652;2022-12-29T09:25:52;13.88;;;1.70;;
43088;SDS011;28709;52.030;5.652;2022-12-29T09:28:18;11.70;;;1.15;;
43088;SDS011;28709;52.030;5.652;2022-12-29T09:30:44;12.00;;;2.00;;
43088;SDS011;28709;52.030;5.652;2022-12-29T09:33:10;8.07;;;1.60;;
43088;SDS011;28709;52.030;5.652;2022-12-29T09:35:35;11.30;;;2.13;;
43088;SDS011;28709;52.030;5.652;2022-12-29T09:38:01;14.57;;;2.83;;
43088;SDS011;28709;52.030;5.652;2022-12-29T09:40:28;4.28;;;1.10;;
43088;SDS011;28709;52.030;5.652;2022-12-29T09:45:47;8.55;;;1.25;;
43088;SDS011;28709;52.030;5.652;2022-12-29T09:48:23;12.88;;;1.95;;
43088;SDS011;28709;52.030;5.652;2022-12-29T09:50:57;15.27;;;1.98;;
43088;SDS011;28709;52.030;5.652;2022-12-29T09:53:28;7.43;;;1.33;;
43088;SDS011;28709;52.030;5.652;2022-12-29T09:56:02;5.18;;;1.35;;
43088;SDS011;28709;52.030;5.652;2022-12-29T09:58:32;8.40;;;1.70;;
43088;SDS011;28709;52.030;5.652;2022-12-29T10:03:58;7.57;;;1.90;;
43088;SDS011;28709;52.030;5.652;2022-12-29T10:09:23;9.43;;;1.40;;
43088;SDS011;28709;52.030;5.652;2022-12-29T10:21:06;13.95;;;1.50;;
43088;SDS011;28709;52.030;5.652;2022-12-29T10:23:51;13.53;;;1.40;;
43088;SDS011;28709;52.030;5.652;2022-12-29T10:26:19;13.05;;;1.60;;
43088;SDS011;28709;52.030;5.652;2022-12-29T10:31:22;7.70;;;1.15;;
43088;SDS011;28709;52.030;5.652;2022-12-29T10:33:49;9.82;;;1.45;;
43088;SDS011;28709;52.030;5.652;2022-12-29T10:36:24;4.25;;;0.90;;
43088;SDS011;28709;52.030;5.652;2022-12-29T10:39:02;10.00;;;1.58;;
43088;SDS011;28709;52.030;5.652;2022-12-29T10:41:39;8.98;;;1.98;;
43088;SDS011;28709;52.030;5.652;2022-12-29T10:44:18;19.70;;;2.38;;
43088;SDS011;28709;52.030;5.652;2022-12-29T10:46:47;10.35;;;1.90;;
43088;SDS011;28709;52.030;5.652;2022-12-29T10:49:29;7.80;;;1.45;;
43088;SDS011;28709;52.030;5.652;2022-12-29T10:51:58;8.57;;;1.17;;
43088;SDS011;28709;52.030;5.652;2022-12-29T10:54:32;9.93;;;1.58;;
43088;SDS011;28709;52.030;5.652;2022-12-29T10:57:04;13.52;;;1.95;;
43088;SDS011;28709;52.030;5.652;2022-12-29T10:59:36;6.97;;;1.55;;
43088;SDS011;28709;52.030;5.652;2022-12-29T11:07:02;15.80;;;2.95;;
43088;SDS011;28709;52.030;5.652;2022-12-29T11:09:29;12.60;;;2.42;;
43088;SDS011;28709;52.030;5.652;2022-12-29T11:11:57;10.73;;;2.80;;
43088;SDS011;28709;52.030;5.652;2022-12-29T11:14:30;15.90;;;3.03;;
43088;SDS011;28709;52.030;5.652;2022-12-29T11:16:57;14.85;;;2.85;;
43088;SDS011;28709;52.030;5.652;2022-12-29T11:19:33;15.48;;;3.03;;
43088;SDS011;28709;52.030;5.652;2022-12-29T11:22:12;16.75;;;3.47;;
43088;SDS011;28709;52.030;5.652;2022-12-29T11:24:43;10.07;;;2.20;;
43088;SDS011;28709;52.030;5.652;2022-12-29T11:27:20;12.32;;;2.20;;
43088;SDS011;28709;52.030;5.652;2022-12-29T11:29:49;14.55;;;2.53;;
43088;SDS011;28709;52.030;5.652;2022-12-29T11:34:43;13.70;;;2.70;;
43088;SDS011;28709;52.030;5.652;2022-12-29T11:37:11;13.10;;;2.83;;
43088;SDS011;28709;52.030;5.652;2022-12-29T11:42:23;18.20;;;3.63;;
43088;SDS011;28709;52.030;5.652;2022-12-29T11:45:06;14.55;;;3.67;;
43088;SDS011;28709;52.030;5.652;2022-12-29T11:47:53;16.30;;;3.65;;
43088;SDS011;28709;52.030;5.652;2022-12-29T11:50:41;15.07;;;3.92;;
43088;SDS011;28709;52.030;5.652;2022-12-29T11:53:20;9.73;;;3.13;;
43088;SDS011;28709;52.030;5.652;2022-12-29T11:55:57;14.00;;;3.05;;
43088;SDS011;28709;52.030;5.652;2022-12-29T11:58:29;16.80;;;3.63;;
43088;SDS011;28709;52.030;5.652;2022-12-29T12:00:58;17.23;;;3.50;;
43088;SDS011;28709;52.030;5.652;2022-12-29T12:03:27;10.00;;;1.88;;
43088;SDS011;28709;52.030;5.652;2022-12-29T12:06:00;6.97;;;1.40;;
43088;SDS011;28709;52.030;5.652;2022-12-29T12:11:30;5.20;;;1.55;;
43088;SDS011;28709;52.030;5.652;2022-12-29T12:16:41;8.13;;;1.90;;
43088;SDS011;28709;52.030;5.652;2022-12-29T12:19:14;14.90;;;2.72;;
43088;SDS011;28709;52.030;5.652;2022-12-29T12:21:58;12.00;;;2.80;;
43088;SDS011;28709;52.030;5.652;2022-12-29T12:27:07;16.90;;;2.60;;
43088;SDS011;28709;52.030;5.652;2022-12-29T12:29:50;15.50;;;2.67;;
43088;SDS011;28709;52.030;5.652;2022-12-29T12:32:20;10.93;;;2.30;;
43088;SDS011;28709;52.030;5.652;2022-12-29T12:35:11;16.67;;;2.28;;
43088;SDS011;28709;52.030;5.652;2022-12-29T12:41:13;9.48;;;2.53;;
43088;SDS011;28709;52.030;5.652;2022-12-29T12:43:53;23.00;;;3.42;;
43088;SDS011;28709;52.030;5.652;2022-12-29T12:46:33;15.75;;;2.47;;
43088;SDS011;28709;52.030;5.652;2022-12-29T12:49:34;21.58;;;3.80;;
43088;SDS011;28709;52.030;5.652;2022-12-29T12:58:05;12.55;;;3.25;;
43088;SDS011;28709;52.030;5.652;2022-12-29T13:14:16;14.15;;;2.70;;
43088;SDS011;28709;52.030;5.652;2022-12-29T13:17:22;12.07;;;2.80;;
43088;SDS011;28709;52.030;5.652;2022-12-29T13:26:14;13.57;;;3.22;;
43088;SDS011;28709;52.030;5.652;2022-12-29T13:28:49;15.25;;;2.90;;
43088;SDS011;28709;52.030;5.652;2022-12-29T13:34:14;16.23;;;4.03;;
43088;SDS011;28709;52.030;5.652;2022-12-29T13:36:45;11.88;;;3.00;;
43088;SDS011;28709;52.030;5.652;2022-12-29T13:39:19;11.18;;;2.17;;
43088;SDS011;28709;52.030;5.652;2022-12-29T13:41:51;9.52;;;2.13;;
43088;SDS011;28709;52.030;5.652;2022-12-29T13:44:22;13.13;;;2.72;;
43088;SDS011;28709;52.030;5.652;2022-12-29T13:46:55;17.65;;;2.88;;
43088;SDS011;28709;52.030;5.652;2022-12-29T13:49:23;12.63;;;3.03;;
43088;SDS011;28709;52.030;5.652;2022-12-29T13:57:10;11.27;;;2.83;;
43088;SDS011;28709;52.030;5.652;2022-12-29T13:59:58;16.13;;;3.90;;
43088;SDS011;28709;52.030;5.652;2022-12-29T14:02:42;11.18;;;2.25;;
43088;SDS011;28709;52.030;5.652;2022-12-29T14:07:46;10.77;;;3.00;;
43088;SDS011;28709;52.030;5.652;2022-12-29T14:10:45;9.48;;;1.90;;
43088;SDS011;28709;52.030;5.652;2022-12-29T14:13:14;11.30;;;2.53;;
43088;SDS011;28709;52.030;5.652;2022-12-29T14:15:43;9.73;;;1.35;;
43088;SDS011;28709;52.030;5.652;2022-12-29T14:18:17;6.28;;;1.30;;
43088;SDS011;28709;52.030;5.652;2022-12-29T14:20:51;8.23;;;0.98;;
43088;SDS011;28709;52.030;5.652;2022-12-29T14:23:26;6.28;;;0.85;;
43088;SDS011;28709;52.030;5.652;2022-12-29T14:25:56;3.47;;;0.68;;
43088;SDS011;28709;52.030;5.652;2022-12-29T14:28:38;5.00;;;1.20;;
43088;SDS011;28709;52.030;5.652;2022-12-29T14:33:41;3.13;;;0.70;;
43088;SDS011;28709;52.030;5.652;2022-12-29T14:36:33;5.13;;;0.98;;
43088;SDS011;28709;52.030;5.652;2022-12-29T14:38:59;4.35;;;0.82;;
43088;SDS011;28709;52.030;5.652;2022-12-29T14:41:38;5.68;;;1.63;;
43088;SDS011;28709;52.030;5.652;2022-12-29T14:49:16;4.32;;;1.08;;
43088;SDS011;28709;52.030;5.652;2022-12-29T14:51:45;4.50;;;1.08;;
43088;SDS011;28709;52.030;5.652;2022-12-29T14:57:03;4.95;;;1.70;;
43088;SDS011;28709;52.030;5.652;2022-12-29T14:59:31;9.52;;;2.78;;
43088;SDS011;28709;52.030;5.652;2022-12-29T15:02:00;8.07;;;2.15;;
43088;SDS011;28709;52.030;5.652;2022-12-29T15:04:30;10.68;;;2.28;;
43088;SDS011;28709;52.030;5.652;2022-12-29T15:06:57;8.60;;;2.55;;
43088;SDS011;28709;52.030;5.652;2022-12-29T15:09:35;7.55;;;2.67;;
43088;SDS011;28709;52.030;5.652;2022-12-29T15:14:58;8.57;;;2.67;;
43088;SDS011;28709;52.030;5.652;2022-12-29T15:17:31;8.68;;;2.92;;
43088;SDS011;28709;52.030;5.652;2022-12-29T15:19:59;9.27;;;2.08;;
43088;SDS011;28709;52.030;5.652;2022-12-29T15:22:26;11.52;;;2.10;;
43088;SDS011;28709;52.030;5.652;2022-12-29T15:24:53;9.00;;;1.90;;
43088;SDS011;28709;52.030;5.652;2022-12-29T15:27:21;10.65;;;1.98;;
43088;SDS011;28709;52.030;5.652;2022-12-29T15:29:55;10.75;;;2.15;;
43088;SDS011;28709;52.030;5.652;2022-12-29T15:32:23;20.43;;;4.07;;
43088;SDS011;28709;52.030;5.652;2022-12-29T15:34:51;8.40;;;1.77;;
43088;SDS011;28709;52.030;5.652;2022-12-29T15:37:22;6.65;;;2.55;;
43088;SDS011;28709;52.030;5.652;2022-12-29T15:40:00;9.60;;;2.25;;
43088;SDS011;28709;52.030;5.652;2022-12-29T15:45:20;11.93;;;1.85;;
43088;SDS011;28709;52.030;5.652;2022-12-29T15:47:51;9.70;;;2.08;;
43088;SDS011;28709;52.030;5.652;2022-12-29T15:50:26;9.40;;;2.25;;
43088;SDS011;28709;52.030;5.652;2022-12-29T15:52:54;8.95;;;2.15;;
43088;SDS011;28709;52.030;5.652;2022-12-29T15:58:00;11.02;;;2.22;;
43088;SDS011;28709;52.030;5.652;2022-12-29T16:00:29;11.93;;;2.15;;
43088;SDS011;28709;52.030;5.652;2022-12-29T16:02:58;10.07;;;1.95;;
43088;SDS011;28709;52.030;5.652;2022-12-29T16:05:32;8.90;;;2.75;;
43088;SDS011;28709;52.030;5.652;2022-12-29T16:08:02;6.35;;;1.75;;
43088;SDS011;28709;52.030;5.652;2022-12-29T16:10:33;6.95;;;1.77;;
43088;SDS011;28709;52.030;5.652;2022-12-29T16:13:10;5.30;;;1.70;;
43088;SDS011;28709;52.030;5.652;2022-12-29T16:15:46;7.15;;;1.80;;
43088;SDS011;28709;52.030;5.652;2022-12-29T16:18:20;7.53;;;1.80;;
43088;SDS011;28709;52.030;5.652;2022-12-29T16:20:49;7.03;;;1.80;;
43088;SDS011;28709;52.030;5.652;2022-12-29T16:23:20;6.85;;;1.92;;
43088;SDS011;28709;52.030;5.652;2022-12-29T16:25:49;9.45;;;2.13;;
43088;SDS011;28709;52.030;5.652;2022-12-29T16:28:20;6.93;;;1.75;;
43088;SDS011;28709;52.030;5.652;2022-12-29T16:30:58;8.68;;;1.60;;
43088;SDS011;28709;52.030;5.652;2022-12-29T16:33:32;9.05;;;2.05;;
43088;SDS011;28709;52.030;5.652;2022-12-29T16:36:26;11.60;;;2.42;;
43088;SDS011;28709;52.030;5.652;2022-12-29T16:41:59;7.45;;;1.95;;
43088;SDS011;28709;52.030;5.652;2022-12-29T16:46:57;8.77;;;1.45;;
43088;SDS011;28709;52.030;5.652;2022-12-29T16:49:25;8.05;;;1.90;;
43088;SDS011;28709;52.030;5.652;2022-12-29T16:51:52;8.32;;;1.30;;
43088;SDS011;28709;52.030;5.652;2022-12-29T16:54:32;7.00;;;1.30;;
43088;SDS011;28709;52.030;5.652;2022-12-29T16:57:01;6.80;;;1.20;;
43088;SDS011;28709;52.030;5.652;2022-12-29T16:59:35;5.80;;;1.17;;
43088;SDS011;28709;52.030;5.652;2022-12-29T17:02:10;9.55;;;1.40;;
43088;SDS011;28709;52.030;5.652;2022-12-29T17:04:43;9.63;;;1.45;;
43088;SDS011;28709;52.030;5.652;2022-12-29T17:07:17;4.88;;;1.35;;
43088;SDS011;28709;52.030;5.652;2022-12-29T17:09:44;7.10;;;1.25;;
43088;SDS011;28709;52.030;5.652;2022-12-29T17:12:13;7.15;;;1.77;;
43088;SDS011;28709;52.030;5.652;2022-12-29T17:14:43;6.28;;;1.80;;
43088;SDS011;28709;52.030;5.652;2022-12-29T17:20:02;3.58;;;1.17;;
43088;SDS011;28709;52.030;5.652;2022-12-29T17:22:38;15.02;;;2.85;;
43088;SDS011;28709;52.030;5.652;2022-12-29T17:25:04;6.68;;;1.80;;